Time;durP1;ratioP1;P1;durP2;ratioP2;P2;SDS_P1;SDS_P2;PMS_P1;PMS_P2;Temp;Humidity;BMP_temperature;BMP_pressure;BME280_temperature;BME280_humidity;BME280_pressure;Samples;Min_cycle;Max_cycle;Signal;HPM_P1;HPM_P2
2022/04/20 00:00:57;;;;;;;13.63;11.67;;;;;;;7.76;65.34;101168.47;2089467;28;20183;-64
2022/04/20 00:01:58;;;;;;;13.30;11.90;;;;;;;7.78;65.29;101158.59;2089289;28;20237;-65
2022/04/20 00:02:58;;;;;;;13.37;11.60;;;;;;;7.74;65.21;101149.56;2089028;28;20222;-64
2022/04/20 00:03:59;;;;;;;13.47;11.63;;;;;;;7.56;65.63;101109.44;2089041;28;20186;-65
2022/04/20 00:04:59;;;;;;;13.33;11.93;;;;;;;7.76;66.05;101143.63;2089478;28;20192;-64
2022/04/20 00:06:00;;;;;;;13.53;12.13;;;;;;;7.91;65.54;101158.94;2089420;28;20181;-64
2022/04/20 00:07:01;;;;;;;13.47;11.53;;;;;;;7.62;65.58;101113.34;2088885;28;20191;-64
2022/04/20 00:08:01;;;;;;;14.03;12.13;;;;;;;7.92;65.92;101155.78;2089635;28;20176;-65
2022/04/20 00:09:02;;;;;;;14.27;12.77;;;;;;;7.94;65.34;101160.91;2089239;28;20204;-64
2022/04/20 00:10:03;;;;;;;13.77;12.27;;;;;;;7.96;66.17;101151.06;2089231;28;20185;-64
2022/04/20 00:11:03;;;;;;;13.47;12.07;;;;;;;7.90;65.80;101138.84;2079946;28;20177;-64
2022/04/20 00:12:05;;;;;;;13.33;11.87;;;;;;;7.36;65.61;101066.97;2079710;28;20208;-64
2022/04/20 00:13:05;;;;;;;13.95;12.30;;;;;;;7.99;65.89;101150.22;2089103;28;20208;-64
2022/04/20 00:14:06;;;;;;;13.43;11.87;;;;;;;7.50;65.47;101075.19;2088772;28;20182;-64
2022/04/20 00:15:07;;;;;;;12.63;11.30;;;;;;;8.01;65.58;101136.03;2089475;28;20184;-64
2022/04/20 00:16:07;;;;;;;16.80;12.23;;;;;;;8.09;65.84;101151.38;2089416;28;20177;-64
2022/04/20 00:17:08;;;;;;;18.33;12.03;;;;;;;7.29;65.36;101025.66;2088766;28;20203;-64
2022/04/20 00:18:09;;;;;;;15.97;11.90;;;;;;;7.43;65.40;101051.19;2089349;28;20710;-64
2022/04/20 00:19:09;;;;;;;12.00;10.57;;;;;;;8.19;65.17;101145.00;2089145;28;20176;-64
2022/04/20 00:20:10;;;;;;;13.00;10.13;;;;;;;8.20;65.50;101150.16;2088998;28;20196;-64
2022/04/20 00:21:10;;;;;;;12.50;10.33;;;;;;;8.10;64.85;101134.41;2089448;28;20214;-64
2022/04/20 00:22:11;;;;;;;13.37;11.10;;;;;;;8.20;65.03;101138.34;2089124;28;20188;-64
2022/04/20 00:23:11;;;;;;;15.63;12.20;;;;;;;8.23;64.40;101145.78;2089166;28;20187;-64
2022/04/20 00:24:12;;;;;;;12.60;11.30;;;;;;;7.54;64.96;101051.91;2088853;28;20174;-64
2022/04/20 00:25:13;;;;;;;14.37;11.83;;;;;;;7.85;64.89;101105.38;2089281;28;20592;-64
2022/04/20 00:26:13;;;;;;;13.20;11.43;;;;;;;8.15;65.50;101144.25;2089407;28;20204;-64
2022/04/20 00:27:14;;;;;;;14.13;11.57;;;;;;;7.79;65.07;101095.94;2088677;28;20295;-64
2022/04/20 00:28:14;;;;;;;14.83;12.07;;;;;;;8.14;65.45;101142.66;2089589;28;20199;-64
2022/04/20 00:29:15;;;;;;;12.87;11.47;;;;;;;8.14;65.40;101145.41;2088999;28;20195;-64
2022/04/20 00:30:15;;;;;;;14.07;11.90;;;;;;;8.16;65.46;101146.59;2089191;28;20184;-64
2022/04/20 00:31:16;;;;;;;13.07;11.77;;;;;;;8.15;65.07;101149.78;2089311;28;20680;-64
2022/04/20 00:32:17;;;;;;;16.10;12.37;;;;;;;8.16;65.49;101157.63;2089265;28;20735;-64
2022/04/20 00:33:17;;;;;;;13.60;12.20;;;;;;;8.15;65.14;101158.06;2088800;28;20181;-64
2022/04/20 00:34:18;;;;;;;14.80;12.90;;;;;;;8.04;65.50;101140.75;2088457;28;20279;-64
2022/04/20 00:35:18;;;;;;;15.43;11.67;;;;;;;8.15;65.45;101158.81;2089289;28;20176;-64
2022/04/20 00:36:19;;;;;;;12.43;10.97;;;;;;;8.19;65.58;101156.81;2089038;28;20203;-64
2022/04/20 00:37:19;;;;;;;14.10;10.90;;;;;;;7.47;65.31;101051.16;2088596;28;20709;-64
2022/04/20 00:38:20;;;;;;;12.07;10.77;;;;;;;8.23;65.47;101162.34;2089495;28;20181;-64
2022/04/20 00:39:21;;;;;;;12.23;10.27;;;;;;;8.26;64.72;101164.31;2088936;28;20185;-64
2022/04/20 00:40:22;;;;;;;12.68;9.98;;;;;;;8.27;65.05;101165.88;2089250;28;20172;-64
2022/04/20 00:41:23;;;;;;;12.50;10.70;;;;;;;8.26;64.54;101167.84;2089211;28;20325;-64
2022/04/20 00:42:27;;;;;;;11.60;10.40;;;;;;;7.30;64.07;101014.22;2089645;28;20172;-64
2022/04/20 00:43:28;;;;;;;13.18;10.20;;;;;;;8.23;64.59;101163.16;2088188;28;20545;-64
2022/04/20 00:44:29;;;;;;;12.80;11.07;;;;;;;8.22;64.18;101150.53;2088898;28;20198;-64
2022/04/20 00:45:31;;;;;;;12.40;11.07;;;;;;;8.23;64.49;101149.34;2089310;28;20191;-64
2022/04/20 00:46:32;;;;;;;12.57;11.27;;;;;;;8.20;64.91;101149.38;2089320;28;20186;-64
2022/04/20 00:47:36;;;;;;;12.50;10.63;;;;;;;8.20;64.61;101150.16;2088667;28;20204;-64
2022/04/20 00:48:38;;;;;;;12.82;10.90;;;;;;;8.20;65.12;101144.63;2089146;28;20638;-64
2022/04/20 00:49:39;;;;;;;12.18;10.88;;;;;;;8.21;64.77;101145.41;2088869;28;20173;-64
2022/04/20 00:50:43;;;;;;;14.60;11.20;;;;;;;7.69;65.27;101061.69;2088845;28;20255;-64
2022/04/20 00:51:57;;;;;;;13.15;11.57;;;;;;;8.21;65.03;101151.72;2088908;28;20184;-64
2022/04/20 00:52:57;;;;;;;13.55;11.18;;;;;;;8.19;65.42;101139.47;2089414;28;20208;-64
2022/04/20 00:54:00;;;;;;;12.23;10.93;;;;;;;7.89;65.11;101098.63;2079275;28;20191;-64
2022/04/20 00:55:00;;;;;;;14.60;11.55;;;;;;;8.14;65.39;101142.66;2080093;28;20631;-64
2022/04/20 00:56:01;;;;;;;14.00;11.20;;;;;;;8.09;65.68;101148.63;2080255;28;20192;-64
2022/04/20 00:57:02;;;;;;;13.87;11.27;;;;;;;7.65;65.68;101071.97;2079838;28;20185;-64
2022/04/20 00:58:02;;;;;;;12.40;11.10;;;;;;;7.79;65.75;101098.72;2088715;28;20191;-64
2022/04/20 00:59:03;;;;;;;13.13;11.67;;;;;;;8.16;65.79;101149.34;2088853;28;20180;-64
2022/04/20 01:00:05;;;;;;;11.93;10.73;;;;;;;8.16;65.34;101134.78;2088685;28;20177;-64
2022/04/20 01:01:06;;;;;;;12.02;10.18;;;;;;;8.27;65.25;101135.50;2089074;28;20191;-64
2022/04/20 01:02:07;;;;;;;11.68;10.18;;;;;;;8.20;65.52;101124.53;2088879;28;20246;-64
2022/04/20 01:03:07;;;;;;;12.15;10.35;;;;;;;8.32;64.76;101129.56;2089070;28;20210;-64
2022/04/20 01:04:08;;;;;;;12.33;10.53;;;;;;;8.28;64.96;101126.03;2088367;28;20176;-64
2022/04/20 01:05:09;;;;;;;12.97;10.90;;;;;;;8.25;65.20;101110.28;2088390;28;20220;-64
2022/04/20 01:06:09;;;;;;;14.17;10.47;;;;;;;8.27;64.78;101116.19;2089097;28;20172;-63
2022/04/20 01:07:16;;;;;;;11.30;9.97;;;;;;;8.26;64.78;101125.66;2088661;28;20185;-64
2022/04/20 01:08:17;;;;;;;13.35;10.60;;;;;;;8.27;65.42;101125.28;2088908;28;20187;-64
2022/04/20 01:09:18;;;;;;;13.37;10.77;;;;;;;8.32;64.97;101126.81;2088495;28;20186;-65
2022/04/20 01:10:18;;;;;;;13.53;11.00;;;;;;;8.34;65.47;101129.94;2088986;28;20251;-65
2022/04/20 01:11:19;;;;;;;11.50;10.30;;;;;;;8.34;65.00;101124.41;2089105;28;20627;-64
2022/04/20 01:12:21;;;;;;;13.77;11.00;;;;;;;8.34;64.95;101122.44;2089150;28;20594;-64
2022/04/20 01:13:21;;;;;;;13.60;10.18;;;;;;;8.36;65.40;101125.59;2089026;28;20694;-65
2022/04/20 01:14:22;;;;;;;12.20;9.87;;;;;;;8.37;65.14;101121.66;2088730;28;20624;-64
2022/04/20 01:15:23;;;;;;;12.03;10.20;;;;;;;8.02;65.57;101076.88;2087817;28;20234;-65
2022/04/20 01:16:23;;;;;;;12.23;10.50;;;;;;;7.76;65.64;101025.81;2089069;28;20195;-64
2022/04/20 01:17:24;;;;;;;11.10;10.00;;;;;;;7.61;65.59;101004.22;2088665;28;20168;-65
2022/04/20 01:18:24;;;;;;;11.23;10.13;;;;;;;8.07;65.71;101079.22;2080358;28;20729;-64
2022/04/20 01:19:38;;;;;;;10.57;9.57;;;;;;;8.21;65.98;101115.81;2079563;28;20181;-64
2022/04/20 01:20:39;;;;;;;11.05;9.85;;;;;;;7.74;66.85;101050.25;2088801;28;20172;-64
2022/04/20 01:21:40;;;;;;;10.82;9.75;;;;;;;7.28;67.01;100982.75;2089122;28;20203;-64
2022/04/20 01:22:42;;;;;;;11.13;10.03;;;;;;;7.97;66.64;101088.34;2088900;28;20191;-64
2022/04/20 01:23:42;;;;;;;11.57;10.45;;;;;;;8.12;67.36;101122.97;2088525;28;20186;-64
2022/04/20 01:24:43;;;;;;;10.83;9.83;;;;;;;8.23;67.29;101116.22;2089016;28;20188;-64
2022/04/20 01:25:43;;;;;;;10.47;9.47;;;;;;;8.28;67.49;101126.84;2087876;28;20192;-64
2022/04/20 01:26:44;;;;;;;10.60;9.47;;;;;;;8.33;67.34;101125.59;2088688;28;20177;-64
2022/04/20 01:27:44;;;;;;;12.20;9.17;;;;;;;8.38;67.45;101131.50;2088902;28;20673;-64
2022/04/20 01:28:46;;;;;;;11.07;9.97;;;;;;;8.40;66.48;101140.16;2079994;28;20217;-65
2022/04/20 01:29:48;;;;;;;10.38;9.35;;;;;;;8.43;65.92;101136.59;2079382;28;20177;-64
2022/04/20 01:30:49;;;;;;;11.05;9.35;;;;;;;8.41;65.83;101127.91;2088747;28;20230;-64
2022/04/20 01:31:49;;;;;;;10.50;9.40;;;;;;;8.04;64.89;101074.53;2088973;28;20261;-64
2022/04/20 01:32:50;;;;;;;11.33;9.90;;;;;;;8.36;65.26;101130.34;2088985;28;20175;-64
2022/04/20 01:33:50;;;;;;;10.63;9.13;;;;;;;8.23;64.53;101113.44;2088569;28;20265;-64
2022/04/20 01:34:52;;;;;;;11.73;9.30;;;;;;;8.36;64.93;101133.88;2089022;28;20707;-64
2022/04/20 01:35:52;;;;;;;11.38;9.18;;;;;;;8.37;64.82;101126.38;2087702;28;20177;-64
2022/04/20 01:36:53;;;;;;;12.50;10.10;;;;;;;8.38;65.13;101136.22;2080805;28;20219;-64
2022/04/20 01:37:54;;;;;;;9.77;8.83;;;;;;;8.37;64.81;101140.97;2089103;28;20184;-64
2022/04/20 01:38:54;;;;;;;10.77;9.67;;;;;;;8.38;64.84;101144.50;2088908;28;20180;-64
2022/04/20 01:39:55;;;;;;;10.53;9.37;;;;;;;8.37;64.57;101152.03;2087863;28;20246;-64
2022/04/20 01:40:56;;;;;;;10.63;9.10;;;;;;;8.37;64.58;101142.94;2079972;28;20196;-64
2022/04/20 01:41:56;;;;;;;10.53;9.10;;;;;;;8.06;64.81;101105.25;2080220;28;20216;-64
2022/04/20 01:42:57;;;;;;;9.83;8.83;;;;;;;8.36;64.72;101153.19;2088951;28;20180;-64
2022/04/20 01:43:57;;;;;;;10.17;9.07;;;;;;;8.35;64.25;101157.16;2088467;28;20211;-64
2022/04/20 01:45:00;;;;;;;10.50;9.17;;;;;;;8.28;64.61;101157.22;2088987;28;20181;-65
2022/04/20 01:46:00;;;;;;;10.07;8.55;;;;;;;8.13;64.00;101139.13;2088699;28;20184;-64
2022/04/20 01:47:01;;;;;;;10.37;8.77;;;;;;;8.20;64.45;101154.91;2087914;28;20212;-64
2022/04/20 01:48:01;;;;;;;10.37;9.23;;;;;;;8.10;64.34;101148.19;2089007;28;20579;-65
2022/04/20 01:49:03;;;;;;;9.83;8.87;;;;;;;8.17;64.16;101159.22;2088644;28;20616;-64
2022/04/20 01:50:05;;;;;;;9.20;8.20;;;;;;;8.11;64.35;101168.31;2088176;28;20187;-64
2022/04/20 01:52:25;;;;;;;10.15;9.00;;;;;;;8.05;64.67;101164.41;2089023;28;20161;-64
2022/04/20 01:53:25;;;;;;;9.47;8.47;;;;;;;8.06;64.87;101169.53;2088479;28;20259;-64
2022/04/20 01:54:26;;;;;;;9.90;8.93;;;;;;;8.09;64.77;101168.72;2089049;28;20180;-65
2022/04/20 01:55:27;;;;;;;9.73;8.07;;;;;;;7.47;64.40;101064.94;2079810;28;20177;-64
2022/04/20 01:56:28;;;;;;;9.85;8.43;;;;;;;8.04;64.54;101165.59;2079891;28;20526;-64
2022/04/20 01:57:28;;;;;;;9.67;8.67;;;;;;;8.10;64.05;101166.75;2087780;28;20231;-64
2022/04/20 01:58:29;;;;;;;12.00;8.47;;;;;;;8.09;64.39;101170.72;2089004;28;20204;-64
2022/04/20 01:59:29;;;;;;;9.53;8.10;;;;;;;8.04;63.98;101171.13;2088359;28;20613;-64
2022/04/20 02:00:30;;;;;;;10.03;8.27;;;;;;;8.00;63.64;101165.59;2088386;28;20188;-64
2022/04/20 02:02:49;;;;;;;9.63;8.13;;;;;;;7.91;63.75;101159.75;2088918;28;20161;-64
2022/04/20 02:03:50;;;;;;;9.33;7.87;;;;;;;7.87;64.26;101158.97;2088559;28;20665;-64
2022/04/20 02:04:50;;;;;;;8.73;7.80;;;;;;;7.83;64.39;101162.91;2088777;28;20579;-64
2022/04/20 02:05:51;;;;;;;9.47;8.57;;;;;;;7.81;64.22;101165.31;2088914;28;20651;-64
2022/04/20 02:06:51;;;;;;;8.80;7.90;;;;;;;7.56;64.62;101125.97;2088324;28;20246;-64
2022/04/20 02:07:52;;;;;;;9.17;8.27;;;;;;;7.78;64.84;101160.56;2088080;28;20593;-64
2022/04/20 02:08:52;;;;;;;8.80;7.90;;;;;;;7.77;64.98;101165.31;2088878;28;20177;-64
2022/04/20 02:09:53;;;;;;;9.23;8.23;;;;;;;7.79;65.19;101170.44;2088189;28;20177;-64
2022/04/20 02:10:54;;;;;;;13.90;9.15;;;;;;;7.81;65.17;101173.56;2088772;28;20188;-64
2022/04/20 02:11:54;;;;;;;16.80;8.80;;;;;;;7.81;65.08;101168.84;2088805;28;20265;-64
2022/04/20 02:12:55;;;;;;;11.10;8.60;;;;;;;7.77;65.19;101167.28;2088999;28;20249;-64
2022/04/20 02:13:55;;;;;;;10.77;8.80;;;;;;;7.61;65.20;101165.00;2088529;28;20623;-64
2022/04/20 02:14:56;;;;;;;11.43;8.47;;;;;;;7.83;64.91;101193.28;2088871;28;20185;-64
2022/04/20 02:15:57;;;;;;;9.77;8.27;;;;;;;7.85;64.86;101172.38;2088684;28;20180;-64
2022/04/20 02:16:57;;;;;;;9.53;7.77;;;;;;;7.85;64.85;101180.63;2088403;28;20200;-64
2022/04/20 02:17:58;;;;;;;8.40;7.60;;;;;;;7.87;64.83;101178.28;2087878;28;20242;-64
2022/04/20 02:18:58;;;;;;;8.70;7.80;;;;;;;7.71;64.73;101149.56;2088518;28;20964;-64
2022/04/20 02:19:59;;;;;;;10.77;8.00;;;;;;;7.88;64.76;101182.63;2088371;28;20179;-64
2022/04/20 02:20:59;;;;;;;9.70;7.70;;;;;;;7.77;65.09;101181.06;2088391;28;20713;-64
2022/04/20 02:22:00;;;;;;;9.17;8.17;;;;;;;7.67;65.39;101179.94;2088939;28;20695;-64
2022/04/20 02:23:00;;;;;;;9.90;8.30;;;;;;;6.36;65.16;100978.69;2079980;28;20204;-64
2022/04/20 02:24:01;;;;;;;9.90;8.47;;;;;;;6.42;65.02;100993.63;2079534;28;20184;-64
2022/04/20 02:25:03;;;;;;;10.27;9.13;;;;;;;7.63;65.98;101181.16;2079969;28;20188;-64
2022/04/20 02:26:04;;;;;;;9.73;8.73;;;;;;;7.24;65.97;101119.78;2079867;28;20254;-64
2022/04/20 02:27:04;;;;;;;9.43;8.53;;;;;;;7.63;65.92;101176.41;2079530;28;20185;-64
2022/04/20 02:28:05;;;;;;;10.27;9.00;;;;;;;7.12;66.08;101114.72;2087992;28;20289;-64
2022/04/20 02:29:05;;;;;;;16.43;9.17;;;;;;;7.65;65.88;101173.25;2088273;28;20191;-64
2022/04/20 02:30:07;;;;;;;11.70;9.10;;;;;;;7.63;65.98;101175.63;2079425;28;20192;-64
2022/04/20 02:31:07;;;;;;;10.23;8.82;;;;;;;7.61;66.00;101177.97;2079633;28;20189;-64
2022/04/20 02:32:09;;;;;;;10.20;8.30;;;;;;;7.09;66.02;101076.91;2088646;28;20183;-64
2022/04/20 02:33:09;;;;;;;9.07;8.13;;;;;;;7.69;65.83;101180.31;2088857;28;20172;-64
2022/04/20 02:34:10;;;;;;;9.77;8.30;;;;;;;7.66;65.84;101172.06;2088430;28;20701;-64
2022/04/20 02:35:10;;;;;;;14.87;8.97;;;;;;;7.75;65.86;101178.72;2090052;28;20184;-64
2022/04/20 02:36:11;;;;;;;21.53;9.17;;;;;;;7.77;65.51;101172.78;2090249;28;20971;-64
2022/04/20 02:37:12;;;;;;;19.30;9.93;;;;;;;7.76;65.31;101171.22;2089905;28;20294;-64
2022/04/20 02:38:15;;;;;;;20.33;9.80;;;;;;;7.72;65.89;101162.97;2089818;28;20183;-64
2022/04/20 02:39:15;;;;;;;19.25;9.80;;;;;;;7.77;65.58;101172.78;2089368;28;20667;-64
2022/04/20 02:40:16;;;;;;;11.47;8.93;;;;;;;7.67;65.59;101159.81;2089924;28;20967;-64
2022/04/20 02:41:17;;;;;;;13.67;9.80;;;;;;;7.82;65.46;101183.44;2089847;28;20375;-64
2022/04/20 02:42:17;;;;;;;11.50;10.20;;;;;;;7.45;65.89;101120.53;2090231;28;20180;-64
2022/04/20 02:43:18;;;;;;;11.83;10.63;;;;;;;7.84;66.13;101184.59;2090170;28;20701;-64
2022/04/20 02:44:19;;;;;;;11.60;10.40;;;;;;;7.22;65.74;101075.31;2089847;28;20615;-64
2022/04/20 02:45:19;;;;;;;11.47;9.70;;;;;;;7.88;65.74;101182.63;2090186;28;20178;-64
2022/04/20 02:46:22;;;;;;;16.40;9.50;;;;;;;7.92;65.71;101177.88;2090305;28;20183;-64
2022/04/20 02:47:23;;;;;;;12.40;9.38;;;;;;;7.98;65.86;101180.97;2089702;28;20199;-64
2022/04/20 02:48:24;;;;;;;16.10;9.73;;;;;;;7.94;65.32;101166.44;2089964;28;20211;-64
2022/04/20 02:49:24;;;;;;;12.57;9.60;;;;;;;7.07;65.36;101027.69;2089000;28;20184;-64
2022/04/20 02:50:25;;;;;;;10.60;9.20;;;;;;;8.07;65.24;101186.88;2090003;28;20173;-64
2022/04/20 02:51:25;;;;;;;9.27;8.23;;;;;;;8.09;65.14;101188.03;2081099;28;20271;-64
2022/04/20 02:52:26;;;;;;;8.50;7.70;;;;;;;8.11;64.92;101191.16;2081000;28;20177;-64
2022/04/20 02:53:26;;;;;;;8.97;7.77;;;;;;;8.10;64.46;101189.59;2089725;28;20264;-64
2022/04/20 02:54:30;;;;;;;9.40;7.70;;;;;;;8.09;64.63;101188.03;2090141;28;20169;-64
2022/04/20 02:55:30;;;;;;;9.70;7.80;;;;;;;8.10;64.18;101188.84;2089927;28;20172;-64
2022/04/20 02:56:31;;;;;;;14.17;8.40;;;;;;;8.11;64.01;101193.16;2090269;28;20173;-64
2022/04/20 02:57:31;;;;;;;11.93;8.43;;;;;;;8.12;64.52;101194.72;2089829;28;20185;-64
2022/04/20 02:58:32;;;;;;;10.93;8.10;;;;;;;7.77;64.23;101129.44;2090092;28;20630;-64
2022/04/20 02:59:32;;;;;;;10.73;8.40;;;;;;;8.14;64.60;101186.81;2088973;28;20176;-64
2022/04/20 03:00:33;;;;;;;11.83;8.90;;;;;;;8.16;64.12;101189.97;2089480;28;20183;-64
2022/04/20 03:01:33;;;;;;;10.13;8.77;;;;;;;8.20;64.25;101190.78;2089958;28;20266;-64
2022/04/20 03:02:34;;;;;;;10.90;8.77;;;;;;;8.19;64.11;101192.72;2089705;28;20642;-64
2022/04/20 03:03:34;;;;;;;10.47;8.97;;;;;;;8.17;64.55;101195.09;2089518;28;20298;-64
2022/04/20 03:04:35;;;;;;;11.20;9.37;;;;;;;7.91;64.15;101153.44;2090106;28;20173;-64
2022/04/20 03:05:35;;;;;;;13.07;9.57;;;;;;;7.50;64.42;101087.03;2090029;28;20648;-64
2022/04/20 03:06:36;;;;;;;10.00;8.70;;;;;;;8.13;64.96;101180.53;2089997;28;20184;-65
2022/04/20 03:07:36;;;;;;;11.77;8.57;;;;;;;8.14;64.34;101189.56;2089855;28;20288;-65
2022/04/20 03:08:37;;;;;;;12.70;9.27;;;;;;;8.11;64.70;101198.69;2090150;28;20173;-64
2022/04/20 03:09:37;;;;;;;10.60;9.20;;;;;;;8.11;65.11;101182.13;2089049;28;20187;-64
2022/04/20 03:10:38;;;;;;;11.23;9.50;;;;;;;8.11;64.64;101193.16;2089380;28;20187;-64
2022/04/20 03:11:40;;;;;;;10.27;8.90;;;;;;;8.10;64.92;101186.06;2089764;28;20661;-64
2022/04/20 03:12:40;;;;;;;12.00;9.35;;;;;;;8.19;64.78;101192.72;2089692;28;20177;-64
2022/04/20 03:13:41;;;;;;;14.07;9.53;;;;;;;8.25;64.83;101195.88;2089482;28;20681;-64
2022/04/20 03:14:41;;;;;;;15.07;8.90;;;;;;;7.73;64.78;101114.88;2090050;28;20684;-64
2022/04/20 03:15:42;;;;;;;12.10;9.90;;;;;;;8.30;64.75;101198.22;2089751;28;20184;-64
2022/04/20 03:16:43;;;;;;;11.70;9.10;;;;;;;8.31;64.63;101199.78;2089552;28;20224;-64
2022/04/20 03:17:43;;;;;;;13.13;9.57;;;;;;;8.24;64.29;101192.34;2089963;28;20200;-64
2022/04/20 03:18:44;;;;;;;14.23;9.80;;;;;;;8.30;64.27;101210.03;2090064;28;20253;-64
2022/04/20 03:19:44;;;;;;;11.10;10.03;;;;;;;8.27;64.25;101205.34;2088917;28;20189;-64
2022/04/20 03:20:45;;;;;;;12.07;10.03;;;;;;;8.10;64.61;101203.41;2089163;28;20185;-64
2022/04/20 03:21:45;;;;;;;12.33;9.90;;;;;;;8.11;64.91;101195.94;2089870;28;20661;-64
2022/04/20 03:22:46;;;;;;;12.87;10.23;;;;;;;8.12;64.83;101200.25;2089662;28;20263;-64
2022/04/20 03:23:46;;;;;;;10.27;9.10;;;;;;;7.91;64.92;101167.22;2089455;28;20199;-64
2022/04/20 03:24:47;;;;;;;10.87;9.63;;;;;;;7.74;64.84;101143.25;2089962;28;20242;-64
2022/04/20 03:25:47;;;;;;;11.60;9.97;;;;;;;7.53;65.17;101099.22;2090013;28;20204;-64
2022/04/20 03:26:48;;;;;;;12.40;10.00;;;;;;;8.06;65.25;101188.06;2089465;28;20221;-64
2022/04/20 03:27:49;;;;;;;12.13;10.00;;;;;;;8.01;65.23;101191.25;2089834;28;20614;-64
2022/04/20 03:28:49;;;;;;;12.23;10.30;;;;;;;7.46;65.48;101122.09;2089784;28;20573;-64
2022/04/20 03:29:49;;;;;;;11.03;9.60;;;;;;;6.51;65.80;100997.53;2089393;28;20184;-64
2022/04/20 03:30:50;;;;;;;13.90;10.03;;;;;;;6.56;65.93;101052.19;2089560;28;20195;-64
2022/04/20 03:31:53;;;;;;;11.30;10.17;;;;;;;6.51;65.47;101018.78;2089248;28;20187;-64
2022/04/20 03:32:53;;;;;;;13.02;10.18;;;;;;;7.62;66.30;101180.34;2089482;28;20726;-64
2022/04/20 03:33:55;;;;;;;13.83;9.70;;;;;;;7.50;66.21;101153.22;2080623;28;20726;-64
2022/04/20 03:34:56;;;;;;;12.27;9.60;;;;;;;7.74;65.79;101188.19;2081209;28;20181;-64
2022/04/20 03:35:56;;;;;;;10.17;9.13;;;;;;;7.68;66.08;101166.94;2089731;28;20176;-64
2022/04/20 03:36:57;;;;;;;12.70;9.07;;;;;;;7.83;65.61;101188.53;2089129;28;20185;-65
2022/04/20 03:37:57;;;;;;;12.27;10.17;;;;;;;7.63;65.83;101146.06;2089820;28;20245;-64
2022/04/20 03:38:58;;;;;;;10.73;9.60;;;;;;;7.65;65.88;101153.94;2089720;28;20180;-64
2022/04/20 03:39:59;;;;;;;10.73;9.63;;;;;;;7.85;65.35;101185.41;2089151;28;20207;-65
2022/04/20 03:41:00;;;;;;;12.63;10.13;;;;;;;7.81;65.51;101181.84;2089293;28;20191;-64
2022/04/20 03:42:01;;;;;;;10.47;9.33;;;;;;;7.70;65.53;101178.34;2089112;28;20186;-64
2022/04/20 03:43:02;;;;;;;9.90;8.77;;;;;;;7.34;65.84;101132.75;2089667;28;20647;-64
2022/04/20 03:44:03;;;;;;;11.60;9.57;;;;;;;7.62;65.83;101174.81;2089190;28;20242;-64
2022/04/20 03:45:04;;;;;;;11.23;9.80;;;;;;;7.67;65.98;101184.66;2089768;28;20184;-64
2022/04/20 03:46:05;;;;;;;14.40;9.30;;;;;;;7.71;65.45;101186.22;2089761;28;20270;-64
2022/04/20 03:47:06;;;;;;;10.75;9.65;;;;;;;7.33;66.16;101123.69;2089369;28;20252;-64
2022/04/20 03:48:07;;;;;;;10.63;9.53;;;;;;;7.76;66.28;101191.34;2089690;28;20263;-64
2022/04/20 03:49:07;;;;;;;10.93;9.07;;;;;;;7.81;66.34;101193.69;2089456;28;20510;-64
2022/04/20 03:50:08;;;;;;;10.37;9.27;;;;;;;6.58;66.05;100994.78;2089374;28;20211;-64
2022/04/20 03:51:09;;;;;;;10.43;9.10;;;;;;;7.91;66.11;101192.88;2089102;28;20226;-64
2022/04/20 03:52:09;;;;;;;16.57;9.33;;;;;;;7.98;66.38;101192.03;2089316;28;20210;-64
2022/04/20 03:53:10;;;;;;;13.93;9.67;;;;;;;8.02;66.02;101188.09;2089307;28;20398;-65
2022/04/20 03:54:10;;;;;;;10.73;8.53;;;;;;;7.91;65.45;101162.50;2088920;28;20173;-64
2022/04/20 03:55:11;;;;;;;9.73;8.60;;;;;;;8.16;65.49;101198.28;2089572;28;20180;-64
2022/04/20 03:56:12;;;;;;;13.90;9.43;;;;;;;8.18;65.74;101195.88;2088958;28;20701;-64
2022/04/20 03:57:12;;;;;;;11.70;8.50;;;;;;;7.68;65.33;101117.28;2088579;28;20180;-64
2022/04/20 03:58:13;;;;;;;12.43;9.20;;;;;;;8.22;65.40;101197.47;2089663;28;20175;-64
2022/04/20 03:59:13;;;;;;;11.60;8.23;;;;;;;8.24;64.95;101199.81;2089283;28;20184;-64
2022/04/20 04:00:14;;;;;;;15.67;9.57;;;;;;;8.22;65.18;101191.97;2089365;28;20211;-64
2022/04/20 04:01:16;;;;;;;14.17;9.77;;;;;;;7.50;65.01;101077.94;2089096;28;20211;-64
2022/04/20 04:02:17;;;;;;;13.20;9.07;;;;;;;8.37;64.77;101217.50;2090331;28;20179;-64
2022/04/20 04:03:19;;;;;;;11.65;8.90;;;;;;;8.39;64.50;101215.13;2096104;28;20187;-64
2022/04/20 04:04:20;;;;;;;10.15;9.10;;;;;;;8.36;64.82;101215.94;2090635;28;20187;-64
2022/04/20 04:05:21;;;;;;;9.45;8.25;;;;;;;8.47;64.36;101239.56;2089388;28;20300;-64
2022/04/20 04:06:21;;;;;;;9.97;8.40;;;;;;;8.46;64.22;101212.34;2089368;28;20249;-64
2022/04/20 04:07:22;;;;;;;9.73;8.17;;;;;;;8.45;64.13;101208.78;2088857;28;20232;-64
2022/04/20 04:08:23;;;;;;;10.13;8.70;;;;;;;8.26;63.86;101223.06;2089559;28;20192;-64
2022/04/20 04:09:24;;;;;;;10.83;8.27;;;;;;;8.12;63.77;101200.25;2089273;28;20277;-64
2022/04/20 04:10:24;;;;;;;10.80;8.53;;;;;;;8.04;64.35;101199.50;2089331;28;20658;-64
2022/04/20 04:11:25;;;;;;;10.57;9.27;;;;;;;7.97;64.98;101207.03;2088869;28;20380;-64
2022/04/20 04:12:26;;;;;;;11.97;9.33;;;;;;;7.44;65.23;101145.72;2080647;28;20214;-64
2022/04/20 04:13:26;;;;;;;9.93;8.90;;;;;;;7.83;65.15;101224.41;2079030;28;20203;-64
2022/04/20 04:14:27;;;;;;;9.57;8.57;;;;;;;7.58;65.47;101160.25;2088902;28;20672;-64
2022/04/20 04:15:29;;;;;;;10.63;8.53;;;;;;;7.99;65.52;101212.94;2089373;28;20250;-64
2022/04/20 04:16:29;;;;;;;11.40;10.07;;;;;;;7.99;65.56;101210.19;2089369;28;20175;-65
2022/04/20 04:17:30;;;;;;;9.53;8.53;;;;;;;8.16;65.77;101223.13;2089027;28;20171;-64
2022/04/20 04:18:30;;;;;;;11.70;8.70;;;;;;;8.22;65.47;101227.84;2089549;28;20256;-64
2022/04/20 04:19:31;;;;;;;9.87;8.87;;;;;;;8.29;65.66;101227.81;2089009;28;20184;-65
2022/04/20 04:20:31;;;;;;;10.07;8.90;;;;;;;7.38;65.26;101070.91;2088960;28;20680;-64
2022/04/20 04:21:37;;;;;;;12.87;10.10;;;;;;;8.41;65.15;101221.03;2088708;28;20594;-64
2022/04/20 04:22:38;;;;;;;10.65;9.00;;;;;;;8.46;64.92;101234.44;2089133;28;20215;-65
2022/04/20 04:23:38;;;;;;;11.53;8.67;;;;;;;8.40;64.81;101219.47;2084733;28;20318;-64
2022/04/20 04:24:40;;;;;;;14.07;8.10;;;;;;;8.55;64.33;101229.22;2088431;28;20187;-64
2022/04/20 04:25:41;;;;;;;9.48;7.75;;;;;;;8.41;64.54;101204.47;2089209;28;20192;-64
2022/04/20 04:26:41;;;;;;;12.93;8.33;;;;;;;8.56;64.64;101223.31;2090179;28;20199;-64
2022/04/20 04:27:42;;;;;;;11.17;8.33;;;;;;;8.57;63.81;101221.34;2096685;28;20203;-64
2022/04/20 04:28:42;;;;;;;9.70;8.70;;;;;;;8.47;64.26;101227.72;2094886;28;21354;-64
2022/04/20 04:29:43;;;;;;;10.07;8.10;;;;;;;7.76;64.50;101116.06;2088841;28;20188;-64
2022/04/20 04:30:43;;;;;;;14.20;8.33;;;;;;;8.47;64.33;101223.00;2089134;28;20169;-64
2022/04/20 04:31:44;;;;;;;9.63;8.07;;;;;;;8.53;64.73;101223.34;2079888;28;20514;-64
2022/04/20 04:32:44;;;;;;;9.50;8.40;;;;;;;8.57;64.77;101232.41;2074685;28;20583;-65
2022/04/20 04:33:45;;;;;;;9.33;7.90;;;;;;;8.58;64.78;101223.72;2085491;28;20199;-64
2022/04/20 04:34:45;;;;;;;11.63;8.17;;;;;;;8.60;64.52;101220.50;2086922;28;20192;-65
2022/04/20 04:35:46;;;;;;;12.90;8.33;;;;;;;8.55;63.92;101216.22;2089004;28;20211;-64
2022/04/20 04:36:47;;;;;;;10.23;8.63;;;;;;;8.63;64.10;101220.50;2082723;28;20189;-64
2022/04/20 04:37:47;;;;;;;12.70;10.70;;;;;;;8.69;64.06;101215.34;2088706;28;20224;-64
2022/04/20 04:38:48;;;;;;;15.30;9.90;;;;;;;8.71;63.84;101224.03;2089096;28;20196;-65
2022/04/20 04:39:49;;;;;;;13.52;9.60;;;;;;;8.67;63.74;101220.50;2088527;28;20256;-64
2022/04/20 04:40:49;;;;;;;12.07;9.00;;;;;;;8.64;63.98;101218.53;2086069;28;20274;-64
2022/04/20 04:41:50;;;;;;;13.83;8.70;;;;;;;8.65;63.90;101229.19;2087924;28;20277;-64
2022/04/20 04:42:51;;;;;;;11.10;7.90;;;;;;;8.66;63.78;101221.69;2087234;28;20192;-65
2022/04/20 04:43:51;;;;;;;13.73;8.53;;;;;;;8.66;63.80;101216.94;2087432;28;20562;-64
2022/04/20 04:44:52;;;;;;;9.97;7.90;;;;;;;8.06;63.71;101127.34;2087039;28;20203;-64
2022/04/20 04:48:40;;;;;;;8.88;7.68;;;;;;;8.45;62.77;101152.78;2088750;28;20512;-63